sensor_id;sensor_type;location;lat;lon;timestamp;P1;durP1;ratioP1;P2;durP2;ratioP2
59950;SDS011;45812;53.540;9.774;2023-04-03T00:02:10;7.88;;;2.17;;
59950;SDS011;45812;53.540;9.774;2023-04-03T00:04:36;9.73;;;2.38;;
59950;SDS011;45812;53.540;9.774;2023-04-03T00:07:01;2.90;;;2.15;;
59950;SDS011;45812;53.540;9.774;2023-04-03T00:09:26;4.70;;;1.60;;
59950;SDS011;45812;53.540;9.774;2023-04-03T00:11:51;2.15;;;1.35;;
59950;SDS011;45812;53.540;9.774;2023-04-03T00:14:17;10.68;;;3.00;;
59950;SDS011;45812;53.540;9.774;2023-04-03T00:16:42;6.78;;;2.15;;
59950;SDS011;45812;53.540;9.774;2023-04-03T00:19:07;2.28;;;1.50;;
59950;SDS011;45812;53.540;9.774;2023-04-03T00:21:33;9.00;;;2.92;;
59950;SDS011;45812;53.540;9.774;2023-04-03T00:23:58;8.95;;;2.45;;
59950;SDS011;45812;53.540;9.774;2023-04-03T00:26:24;7.30;;;2.40;;
59950;SDS011;45812;53.540;9.774;2023-04-03T00:28:49;9.57;;;2.10;;
59950;SDS011;45812;53.540;9.774;2023-04-03T00:31:15;7.20;;;2.20;;
59950;SDS011;45812;53.540;9.774;2023-04-03T00:33:41;7.47;;;2.03;;
59950;SDS011;45812;53.540;9.774;2023-04-03T00:36:07;4.65;;;1.95;;
59950;SDS011;45812;53.540;9.774;2023-04-03T00:38:34;3.88;;;1.02;;
59950;SDS011;45812;53.540;9.774;2023-04-03T00:40:59;3.50;;;2.05;;
59950;SDS011;45812;53.540;9.774;2023-04-03T00:43:25;4.57;;;2.58;;
59950;SDS011;45812;53.540;9.774;2023-04-03T00:45:57;3.60;;;1.90;;
59950;SDS011;45812;53.540;9.774;2023-04-03T00:48:33;5.13;;;1.52;;
59950;SDS011;45812;53.540;9.774;2023-04-03T00:51:02;5.72;;;2.38;;
59950;SDS011;45812;53.540;9.774;2023-04-03T00:53:32;7.53;;;2.25;;
59950;SDS011;45812;53.540;9.774;2023-04-03T00:56:02;8.25;;;2.30;;
59950;SDS011;45812;53.540;9.774;2023-04-03T00:58:33;3.50;;;2.17;;
59950;SDS011;45812;53.540;9.774;2023-04-03T01:01:03;4.65;;;1.95;;
59950;SDS011;45812;53.540;9.774;2023-04-03T01:03:33;5.47;;;2.22;;
59950;SDS011;45812;53.540;9.774;2023-04-03T01:05:58;8.25;;;2.08;;
59950;SDS011;45812;53.540;9.774;2023-04-03T01:08:24;5.68;;;2.25;;
59950;SDS011;45812;53.540;9.774;2023-04-03T01:10:49;2.53;;;1.63;;
59950;SDS011;45812;53.540;9.774;2023-04-03T01:13:23;2.75;;;1.70;;
59950;SDS011;45812;53.540;9.774;2023-04-03T01:15:51;4.20;;;1.70;;
59950;SDS011;45812;53.540;9.774;2023-04-03T01:18:17;2.83;;;1.77;;
59950;SDS011;45812;53.540;9.774;2023-04-03T01:20:50;5.95;;;1.85;;
59950;SDS011;45812;53.540;9.774;2023-04-03T01:23:34;9.02;;;2.25;;
59950;SDS011;45812;53.540;9.774;2023-04-03T01:26:09;5.07;;;2.58;;
59950;SDS011;45812;53.540;9.774;2023-04-03T01:28:36;4.47;;;2.30;;
59950;SDS011;45812;53.540;9.774;2023-04-03T01:31:15;8.05;;;2.30;;
59950;SDS011;45812;53.540;9.774;2023-04-03T01:33:47;5.00;;;1.83;;
59950;SDS011;45812;53.540;9.774;2023-04-03T01:36:17;3.83;;;1.85;;
59950;SDS011;45812;53.540;9.774;2023-04-03T01:38:44;5.05;;;2.25;;
59950;SDS011;45812;53.540;9.774;2023-04-03T01:41:09;5.28;;;2.20;;
59950;SDS011;45812;53.540;9.774;2023-04-03T01:43:35;7.57;;;2.25;;
59950;SDS011;45812;53.540;9.774;2023-04-03T01:46:00;6.30;;;2.42;;
59950;SDS011;45812;53.540;9.774;2023-04-03T01:48:25;6.18;;;1.80;;
59950;SDS011;45812;53.540;9.774;2023-04-03T01:50:50;5.30;;;2.60;;
59950;SDS011;45812;53.540;9.774;2023-04-03T01:53:16;10.73;;;2.88;;
59950;SDS011;45812;53.540;9.774;2023-04-03T01:55:41;6.22;;;1.77;;
59950;SDS011;45812;53.540;9.774;2023-04-03T01:58:06;8.93;;;3.33;;
59950;SDS011;45812;53.540;9.774;2023-04-03T02:00:31;5.55;;;2.50;;
59950;SDS011;45812;53.540;9.774;2023-04-03T02:02:57;5.28;;;1.67;;
59950;SDS011;45812;53.540;9.774;2023-04-03T02:05:22;5.20;;;2.08;;
59950;SDS011;45812;53.540;9.774;2023-04-03T02:07:47;4.10;;;1.80;;
59950;SDS011;45812;53.540;9.774;2023-04-03T02:10:13;10.55;;;2.42;;
59950;SDS011;45812;53.540;9.774;2023-04-03T02:12:38;2.30;;;1.65;;
59950;SDS011;45812;53.540;9.774;2023-04-03T02:15:03;11.88;;;3.35;;
59950;SDS011;45812;53.540;9.774;2023-04-03T02:17:29;5.82;;;1.90;;
59950;SDS011;45812;53.540;9.774;2023-04-03T02:19:54;6.25;;;1.83;;
59950;SDS011;45812;53.540;9.774;2023-04-03T02:22:20;5.60;;;2.65;;
59950;SDS011;45812;53.540;9.774;2023-04-03T02:24:45;7.63;;;1.98;;
59950;SDS011;45812;53.540;9.774;2023-04-03T02:27:10;8.25;;;2.17;;
59950;SDS011;45812;53.540;9.774;2023-04-03T02:29:36;6.22;;;2.05;;
59950;SDS011;45812;53.540;9.774;2023-04-03T02:32:01;5.88;;;1.95;;
59950;SDS011;45812;53.540;9.774;2023-04-03T02:34:26;6.70;;;2.03;;
59950;SDS011;45812;53.540;9.774;2023-04-03T02:36:52;2.75;;;1.75;;
59950;SDS011;45812;53.540;9.774;2023-04-03T02:39:17;4.22;;;2.15;;
59950;SDS011;45812;53.540;9.774;2023-04-03T02:41:42;2.22;;;1.33;;
59950;SDS011;45812;53.540;9.774;2023-04-03T02:44:09;4.07;;;1.92;;
59950;SDS011;45812;53.540;9.774;2023-04-03T02:46:35;3.40;;;1.80;;
59950;SDS011;45812;53.540;9.774;2023-04-03T02:49:00;5.15;;;1.88;;
59950;SDS011;45812;53.540;9.774;2023-04-03T02:51:25;1.55;;;1.45;;
59950;SDS011;45812;53.540;9.774;2023-04-03T02:53:51;10.63;;;2.28;;
59950;SDS011;45812;53.540;9.774;2023-04-03T02:56:16;7.00;;;2.33;;
59950;SDS011;45812;53.540;9.774;2023-04-03T02:58:43;2.20;;;1.80;;
59950;SDS011;45812;53.540;9.774;2023-04-03T03:01:09;9.82;;;1.70;;
59950;SDS011;45812;53.540;9.774;2023-04-03T03:03:34;11.02;;;2.03;;
59950;SDS011;45812;53.540;9.774;2023-04-03T03:06:10;5.72;;;1.95;;
59950;SDS011;45812;53.540;9.774;2023-04-03T03:08:37;4.60;;;1.67;;
59950;SDS011;45812;53.540;9.774;2023-04-03T03:11:03;7.63;;;2.47;;
59950;SDS011;45812;53.540;9.774;2023-04-03T03:13:29;6.40;;;2.28;;
59950;SDS011;45812;53.540;9.774;2023-04-03T03:15:55;6.53;;;2.08;;
59950;SDS011;45812;53.540;9.774;2023-04-03T03:18:20;4.47;;;2.33;;
59950;SDS011;45812;53.540;9.774;2023-04-03T03:20:46;5.90;;;2.22;;
59950;SDS011;45812;53.540;9.774;2023-04-03T03:23:11;4.10;;;1.70;;
59950;SDS011;45812;53.540;9.774;2023-04-03T03:25:37;9.60;;;3.05;;
59950;SDS011;45812;53.540;9.774;2023-04-03T03:28:05;4.05;;;1.92;;
59950;SDS011;45812;53.540;9.774;2023-04-03T03:30:31;2.85;;;1.60;;
59950;SDS011;45812;53.540;9.774;2023-04-03T03:32:57;5.95;;;1.67;;
59950;SDS011;45812;53.540;9.774;2023-04-03T03:35:22;4.05;;;2.00;;
59950;SDS011;45812;53.540;9.774;2023-04-03T03:37:47;6.47;;;2.00;;
59950;SDS011;45812;53.540;9.774;2023-04-03T03:40:13;5.15;;;1.88;;
59950;SDS011;45812;53.540;9.774;2023-04-03T03:42:38;5.22;;;1.92;;
59950;SDS011;45812;53.540;9.774;2023-04-03T03:45:04;4.70;;;1.83;;
59950;SDS011;45812;53.540;9.774;2023-04-03T03:47:30;8.73;;;2.42;;
59950;SDS011;45812;53.540;9.774;2023-04-03T03:49:55;8.40;;;2.38;;
59950;SDS011;45812;53.540;9.774;2023-04-03T03:52:20;4.45;;;1.45;;
59950;SDS011;45812;53.540;9.774;2023-04-03T03:54:45;5.22;;;2.42;;
59950;SDS011;45812;53.540;9.774;2023-04-03T03:57:11;4.72;;;2.00;;
59950;SDS011;45812;53.540;9.774;2023-04-03T03:59:36;2.35;;;1.60;;
59950;SDS011;45812;53.540;9.774;2023-04-03T04:02:01;11.00;;;2.15;;
59950;SDS011;45812;53.540;9.774;2023-04-03T04:04:27;3.53;;;1.92;;
59950;SDS011;45812;53.540;9.774;2023-04-03T04:06:52;2.60;;;1.88;;
59950;SDS011;45812;53.540;9.774;2023-04-03T04:09:17;3.70;;;1.90;;
59950;SDS011;45812;53.540;9.774;2023-04-03T04:11:43;7.10;;;1.77;;
59950;SDS011;45812;53.540;9.774;2023-04-03T04:14:08;5.93;;;1.73;;
59950;SDS011;45812;53.540;9.774;2023-04-03T04:16:35;9.57;;;2.10;;
59950;SDS011;45812;53.540;9.774;2023-04-03T04:19:00;5.38;;;2.55;;
59950;SDS011;45812;53.540;9.774;2023-04-03T04:21:25;4.50;;;2.05;;
59950;SDS011;45812;53.540;9.774;2023-04-03T04:23:51;6.88;;;2.50;;
59950;SDS011;45812;53.540;9.774;2023-04-03T04:26:16;4.97;;;2.17;;
59950;SDS011;45812;53.540;9.774;2023-04-03T04:28:42;8.25;;;2.47;;
59950;SDS011;45812;53.540;9.774;2023-04-03T04:31:07;8.10;;;2.50;;
59950;SDS011;45812;53.540;9.774;2023-04-03T04:33:32;5.05;;;2.15;;
59950;SDS011;45812;53.540;9.774;2023-04-03T04:35:57;8.88;;;2.17;;
59950;SDS011;45812;53.540;9.774;2023-04-03T04:38:23;4.80;;;2.05;;
59950;SDS011;45812;53.540;9.774;2023-04-03T04:40:48;5.47;;;2.40;;
59950;SDS011;45812;53.540;9.774;2023-04-03T04:43:13;2.63;;;1.63;;
59950;SDS011;45812;53.540;9.774;2023-04-03T04:45:40;9.70;;;2.22;;
59950;SDS011;45812;53.540;9.774;2023-04-03T04:48:06;6.57;;;2.38;;
59950;SDS011;45812;53.540;9.774;2023-04-03T04:50:31;4.30;;;2.08;;
59950;SDS011;45812;53.540;9.774;2023-04-03T04:52:56;6.63;;;2.10;;
59950;SDS011;45812;53.540;9.774;2023-04-03T04:55:21;8.52;;;2.15;;
59950;SDS011;45812;53.540;9.774;2023-04-03T04:57:46;4.60;;;2.10;;
59950;SDS011;45812;53.540;9.774;2023-04-03T05:00:12;2.30;;;1.70;;
59950;SDS011;45812;53.540;9.774;2023-04-03T05:02:38;8.73;;;2.20;;
59950;SDS011;45812;53.540;9.774;2023-04-03T05:05:03;5.68;;;2.13;;
59950;SDS011;45812;53.540;9.774;2023-04-03T05:07:29;4.88;;;2.45;;
59950;SDS011;45812;53.540;9.774;2023-04-03T05:09:54;5.47;;;2.42;;
59950;SDS011;45812;53.540;9.774;2023-04-03T05:12:19;4.80;;;2.15;;
59950;SDS011;45812;53.540;9.774;2023-04-03T05:14:44;4.50;;;1.95;;
59950;SDS011;45812;53.540;9.774;2023-04-03T05:17:10;4.90;;;2.47;;
59950;SDS011;45812;53.540;9.774;2023-04-03T05:19:35;6.90;;;2.85;;
59950;SDS011;45812;53.540;9.774;2023-04-03T05:22:00;4.13;;;2.08;;
59950;SDS011;45812;53.540;9.774;2023-04-03T05:24:25;2.60;;;2.25;;
59950;SDS011;45812;53.540;9.774;2023-04-03T05:26:51;12.75;;;2.35;;
59950;SDS011;45812;53.540;9.774;2023-04-03T05:29:16;3.42;;;1.88;;
59950;SDS011;45812;53.540;9.774;2023-04-03T05:31:41;3.40;;;1.63;;
59950;SDS011;45812;53.540;9.774;2023-04-03T05:34:06;3.30;;;1.80;;
59950;SDS011;45812;53.540;9.774;2023-04-03T05:36:32;4.25;;;2.10;;
59950;SDS011;45812;53.540;9.774;2023-04-03T05:38:57;2.33;;;2.10;;
59950;SDS011;45812;53.540;9.774;2023-04-03T05:41:22;5.30;;;2.35;;
59950;SDS011;45812;53.540;9.774;2023-04-03T05:43:48;4.68;;;1.98;;
59950;SDS011;45812;53.540;9.774;2023-04-03T05:46:15;6.63;;;2.58;;
59950;SDS011;45812;53.540;9.774;2023-04-03T05:48:42;2.72;;;1.55;;
59950;SDS011;45812;53.540;9.774;2023-04-03T05:51:09;7.82;;;2.83;;
59950;SDS011;45812;53.540;9.774;2023-04-03T05:53:40;5.93;;;1.70;;
59950;SDS011;45812;53.540;9.774;2023-04-03T05:56:06;9.55;;;2.50;;
59950;SDS011;45812;53.540;9.774;2023-04-03T05:58:31;3.30;;;1.65;;
59950;SDS011;45812;53.540;9.774;2023-04-03T06:00:56;5.22;;;2.00;;
59950;SDS011;45812;53.540;9.774;2023-04-03T06:03:22;2.08;;;1.73;;
59950;SDS011;45812;53.540;9.774;2023-04-03T06:05:47;4.32;;;1.73;;
59950;SDS011;45812;53.540;9.774;2023-04-03T06:08:12;5.32;;;2.05;;
59950;SDS011;45812;53.540;9.774;2023-04-03T06:10:39;5.10;;;2.28;;
59950;SDS011;45812;53.540;9.774;2023-04-03T06:13:05;3.33;;;2.25;;
59950;SDS011;45812;53.540;9.774;2023-04-03T06:15:30;9.45;;;3.08;;
59950;SDS011;45812;53.540;9.774;2023-04-03T06:17:56;8.52;;;2.35;;
59950;SDS011;45812;53.540;9.774;2023-04-03T06:20:21;5.47;;;2.30;;
59950;SDS011;45812;53.540;9.774;2023-04-03T06:22:47;6.10;;;2.90;;
59950;SDS011;45812;53.540;9.774;2023-04-03T06:25:12;3.95;;;2.72;;
59950;SDS011;45812;53.540;9.774;2023-04-03T06:27:38;6.95;;;2.33;;
59950;SDS011;45812;53.540;9.774;2023-04-03T06:30:03;5.28;;;2.53;;
59950;SDS011;45812;53.540;9.774;2023-04-03T06:32:30;8.18;;;2.63;;
59950;SDS011;45812;53.540;9.774;2023-04-03T06:34:55;6.90;;;2.80;;
59950;SDS011;45812;53.540;9.774;2023-04-03T06:37:22;9.00;;;2.70;;
59950;SDS011;45812;53.540;9.774;2023-04-03T06:39:50;7.40;;;3.75;;
59950;SDS011;45812;53.540;9.774;2023-04-03T06:42:16;7.90;;;2.83;;
59950;SDS011;45812;53.540;9.774;2023-04-03T06:44:41;7.35;;;2.70;;
59950;SDS011;45812;53.540;9.774;2023-04-03T06:47:08;5.57;;;2.80;;
59950;SDS011;45812;53.540;9.774;2023-04-03T06:49:36;5.93;;;2.63;;
59950;SDS011;45812;53.540;9.774;2023-04-03T06:52:02;4.07;;;2.60;;
59950;SDS011;45812;53.540;9.774;2023-04-03T06:54:27;10.60;;;3.22;;
59950;SDS011;45812;53.540;9.774;2023-04-03T06:56:52;9.70;;;2.78;;
59950;SDS011;45812;53.540;9.774;2023-04-03T06:59:17;8.27;;;2.35;;
59950;SDS011;45812;53.540;9.774;2023-04-03T07:01:43;8.75;;;2.75;;
59950;SDS011;45812;53.540;9.774;2023-04-03T07:04:08;6.10;;;2.22;;
59950;SDS011;45812;53.540;9.774;2023-04-03T07:06:34;8.00;;;2.67;;
59950;SDS011;45812;53.540;9.774;2023-04-03T07:08:59;4.88;;;2.65;;
59950;SDS011;45812;53.540;9.774;2023-04-03T07:11:25;5.90;;;2.20;;
59950;SDS011;45812;53.540;9.774;2023-04-03T07:13:51;8.77;;;2.50;;
59950;SDS011;45812;53.540;9.774;2023-04-03T07:16:16;9.13;;;2.35;;
59950;SDS011;45812;53.540;9.774;2023-04-03T07:18:42;5.97;;;2.50;;
59950;SDS011;45812;53.540;9.774;2023-04-03T07:21:07;7.25;;;2.38;;
59950;SDS011;45812;53.540;9.774;2023-04-03T07:23:32;8.38;;;2.17;;
59950;SDS011;45812;53.540;9.774;2023-04-03T07:25:58;4.10;;;1.65;;
59950;SDS011;45812;53.540;9.774;2023-04-03T07:28:24;3.22;;;1.73;;
59950;SDS011;45812;53.540;9.774;2023-04-03T07:30:54;4.82;;;2.10;;
59950;SDS011;45812;53.540;9.774;2023-04-03T07:33:24;2.63;;;1.63;;
59950;SDS011;45812;53.540;9.774;2023-04-03T07:35:50;2.10;;;1.42;;
59950;SDS011;45812;53.540;9.774;2023-04-03T07:38:15;4.45;;;1.90;;
59950;SDS011;45812;53.540;9.774;2023-04-03T07:40:45;3.45;;;1.52;;
59950;SDS011;45812;53.540;9.774;2023-04-03T07:43:12;5.22;;;1.98;;
59950;SDS011;45812;53.540;9.774;2023-04-03T07:45:37;6.88;;;2.33;;
59950;SDS011;45812;53.540;9.774;2023-04-03T07:48:03;6.45;;;1.85;;
59950;SDS011;45812;53.540;9.774;2023-04-03T07:50:28;5.43;;;1.90;;
59950;SDS011;45812;53.540;9.774;2023-04-03T07:52:55;9.38;;;1.70;;
59950;SDS011;45812;53.540;9.774;2023-04-03T07:55:22;7.05;;;2.13;;
59950;SDS011;45812;53.540;9.774;2023-04-03T07:57:47;2.35;;;1.23;;
59950;SDS011;45812;53.540;9.774;2023-04-03T08:00:13;4.35;;;1.58;;
59950;SDS011;45812;53.540;9.774;2023-04-03T08:02:39;2.13;;;1.25;;
59950;SDS011;45812;53.540;9.774;2023-04-03T08:05:04;3.67;;;0.93;;
59950;SDS011;45812;53.540;9.774;2023-04-03T08:07:30;6.45;;;1.35;;
59950;SDS011;45812;53.540;9.774;2023-04-03T08:09:55;2.53;;;1.08;;
59950;SDS011;45812;53.540;9.774;2023-04-03T08:12:20;4.63;;;1.75;;
59950;SDS011;45812;53.540;9.774;2023-04-03T08:14:46;3.92;;;1.25;;
59950;SDS011;45812;53.540;9.774;2023-04-03T08:17:11;8.73;;;1.48;;
59950;SDS011;45812;53.540;9.774;2023-04-03T08:19:37;2.05;;;1.17;;
59950;SDS011;45812;53.540;9.774;2023-04-03T08:22:03;3.85;;;1.20;;
59950;SDS011;45812;53.540;9.774;2023-04-03T08:24:29;1.90;;;0.95;;
59950;SDS011;45812;53.540;9.774;2023-04-03T08:26:55;4.85;;;1.17;;
59950;SDS011;45812;53.540;9.774;2023-04-03T08:29:20;2.65;;;0.75;;
59950;SDS011;45812;53.540;9.774;2023-04-03T08:31:46;1.08;;;0.93;;
59950;SDS011;45812;53.540;9.774;2023-04-03T08:34:11;2.67;;;0.80;;
59950;SDS011;45812;53.540;9.774;2023-04-03T08:36:38;1.88;;;1.00;;
59950;SDS011;45812;53.540;9.774;2023-04-03T08:39:03;2.75;;;0.98;;
59950;SDS011;45812;53.540;9.774;2023-04-03T08:41:33;4.35;;;1.17;;
59950;SDS011;45812;53.540;9.774;2023-04-03T08:46:52;3.20;;;1.15;;
59950;SDS011;45812;53.540;9.774;2023-04-03T08:49:32;4.80;;;1.08;;
59950;SDS011;45812;53.540;9.774;2023-04-03T08:52:08;3.42;;;0.77;;
59950;SDS011;45812;53.540;9.774;2023-04-03T08:54:40;3.00;;;0.82;;
59950;SDS011;45812;53.540;9.774;2023-04-03T08:57:16;2.65;;;1.55;;
59950;SDS011;45812;53.540;9.774;2023-04-03T08:59:52;5.30;;;1.10;;
59950;SDS011;45812;53.540;9.774;2023-04-03T09:02:22;3.10;;;1.08;;
59950;SDS011;45812;53.540;9.774;2023-04-03T09:04:53;4.03;;;1.15;;
59950;SDS011;45812;53.540;9.774;2023-04-03T09:07:22;3.05;;;1.17;;
59950;SDS011;45812;53.540;9.774;2023-04-03T09:09:58;4.47;;;1.20;;
59950;SDS011;45812;53.540;9.774;2023-04-03T09:12:34;1.67;;;0.73;;
59950;SDS011;45812;53.540;9.774;2023-04-03T09:22:55;4.70;;;1.45;;
59950;SDS011;45812;53.540;9.774;2023-04-03T09:25:54;2.05;;;0.85;;
59950;SDS011;45812;53.540;9.774;2023-04-03T09:28:13;2.58;;;0.95;;
59950;SDS011;45812;53.540;9.774;2023-04-03T09:30:38;1.35;;;0.80;;
59950;SDS011;45812;53.540;9.774;2023-04-03T09:33:04;2.28;;;0.88;;
59950;SDS011;45812;53.540;9.774;2023-04-03T09:35:31;4.78;;;1.75;;
59950;SDS011;45812;53.540;9.774;2023-04-03T09:38:00;3.25;;;0.85;;
59950;SDS011;45812;53.540;9.774;2023-04-03T09:42:56;4.10;;;1.35;;
59950;SDS011;45812;53.540;9.774;2023-04-03T09:45:25;1.50;;;1.02;;
59950;SDS011;45812;53.540;9.774;2023-04-03T09:50:29;2.17;;;0.98;;
59950;SDS011;45812;53.540;9.774;2023-04-03T09:52:55;3.20;;;1.15;;
59950;SDS011;45812;53.540;9.774;2023-04-03T09:55:25;2.92;;;0.82;;
59950;SDS011;45812;53.540;9.774;2023-04-03T09:57:54;2.13;;;0.73;;
59950;SDS011;45812;53.540;9.774;2023-04-03T10:00:25;3.20;;;0.60;;
59950;SDS011;45812;53.540;9.774;2023-04-03T10:02:52;0.45;;;0.45;;
59950;SDS011;45812;53.540;9.774;2023-04-03T10:10:35;2.20;;;1.08;;
59950;SDS011;45812;53.540;9.774;2023-04-03T10:13:12;3.58;;;1.02;;
59950;SDS011;45812;53.540;9.774;2023-04-03T10:15:42;3.00;;;1.10;;
59950;SDS011;45812;53.540;9.774;2023-04-03T10:18:33;1.35;;;0.88;;
59950;SDS011;45812;53.540;9.774;2023-04-03T10:24:19;4.07;;;1.50;;
59950;SDS011;45812;53.540;9.774;2023-04-03T10:26:52;4.00;;;1.27;;
59950;SDS011;45812;53.540;9.774;2023-04-03T10:29:27;3.22;;;1.42;;
59950;SDS011;45812;53.540;9.774;2023-04-03T10:32:09;2.28;;;1.33;;
59950;SDS011;45812;53.540;9.774;2023-04-03T10:40:10;1.45;;;0.85;;
59950;SDS011;45812;53.540;9.774;2023-04-03T10:43:00;3.95;;;1.45;;
59950;SDS011;45812;53.540;9.774;2023-04-03T10:45:43;2.03;;;0.85;;
59950;SDS011;45812;53.540;9.774;2023-04-03T10:51:29;3.35;;;1.20;;
59950;SDS011;45812;53.540;9.774;2023-04-03T10:56:42;5.60;;;1.20;;
59950;SDS011;45812;53.540;9.774;2023-04-03T10:59:17;4.20;;;1.00;;
59950;SDS011;45812;53.540;9.774;2023-04-03T11:01:59;4.03;;;1.27;;
59950;SDS011;45812;53.540;9.774;2023-04-03T11:04:30;2.10;;;0.85;;
59950;SDS011;45812;53.540;9.774;2023-04-03T11:07:03;1.20;;;0.60;;
59950;SDS011;45812;53.540;9.774;2023-04-03T11:09:35;1.48;;;0.80;;
59950;SDS011;45812;53.540;9.774;2023-04-03T11:14:53;3.22;;;0.90;;
59950;SDS011;45812;53.540;9.774;2023-04-03T11:17:27;1.00;;;0.75;;
59950;SDS011;45812;53.540;9.774;2023-04-03T11:22:53;1.42;;;1.10;;
59950;SDS011;45812;53.540;9.774;2023-04-03T11:25:25;2.38;;;1.23;;
59950;SDS011;45812;53.540;9.774;2023-04-03T11:27:58;3.13;;;1.00;;
59950;SDS011;45812;53.540;9.774;2023-04-03T11:30:28;2.05;;;1.02;;
59950;SDS011;45812;53.540;9.774;2023-04-03T11:33:16;3.00;;;1.20;;
59950;SDS011;45812;53.540;9.774;2023-04-03T11:35:46;2.80;;;1.60;;
59950;SDS011;45812;53.540;9.774;2023-04-03T11:38:21;5.15;;;1.25;;
59950;SDS011;45812;53.540;9.774;2023-04-03T11:40:51;2.00;;;1.10;;
59950;SDS011;45812;53.540;9.774;2023-04-03T11:43:23;3.20;;;1.17;;
59950;SDS011;45812;53.540;9.774;2023-04-03T11:51:43;2.50;;;0.98;;
59950;SDS011;45812;53.540;9.774;2023-04-03T11:53:46;1.83;;;1.08;;
59950;SDS011;45812;53.540;9.774;2023-04-03T12:01:42;3.42;;;1.08;;
59950;SDS011;45812;53.540;9.774;2023-04-03T12:04:09;2.50;;;1.38;;
59950;SDS011;45812;53.540;9.774;2023-04-03T12:09:04;3.10;;;1.67;;
59950;SDS011;45812;53.540;9.774;2023-04-03T12:11:48;6.70;;;1.33;;
59950;SDS011;45812;53.540;9.774;2023-04-03T12:14:14;2.25;;;0.85;;
59950;SDS011;45812;53.540;9.774;2023-04-03T12:16:42;1.35;;;1.15;;
59950;SDS011;45812;53.540;9.774;2023-04-03T12:24:28;2.88;;;1.33;;
59950;SDS011;45812;53.540;9.774;2023-04-03T12:29:24;5.10;;;1.50;;
59950;SDS011;45812;53.540;9.774;2023-04-03T12:31:55;1.33;;;1.08;;
59950;SDS011;45812;53.540;9.774;2023-04-03T12:39:55;3.65;;;1.48;;
59950;SDS011;45812;53.540;9.774;2023-04-03T12:42:32;4.00;;;1.10;;
59950;SDS011;45812;53.540;9.774;2023-04-03T12:45:02;2.33;;;1.08;;
59950;SDS011;45812;53.540;9.774;2023-04-03T12:47:38;2.08;;;0.95;;
59950;SDS011;45812;53.540;9.774;2023-04-03T12:52:59;2.85;;;1.40;;
59950;SDS011;45812;53.540;9.774;2023-04-03T12:55:28;2.78;;;1.20;;
59950;SDS011;45812;53.540;9.774;2023-04-03T12:57:54;1.90;;;1.20;;
59950;SDS011;45812;53.540;9.774;2023-04-03T13:02:57;2.30;;;1.23;;
59950;SDS011;45812;53.540;9.774;2023-04-03T13:05:23;6.40;;;1.65;;
59950;SDS011;45812;53.540;9.774;2023-04-03T13:07:51;3.47;;;1.70;;
59950;SDS011;45812;53.540;9.774;2023-04-03T13:10:22;5.03;;;1.25;;
59950;SDS011;45812;53.540;9.774;2023-04-03T13:12:48;3.03;;;1.40;;
59950;SDS011;45812;53.540;9.774;2023-04-03T13:15:17;3.20;;;1.60;;
59950;SDS011;45812;53.540;9.774;2023-04-03T13:17:45;4.93;;;1.75;;
59950;SDS011;45812;53.540;9.774;2023-04-03T13:20:16;2.67;;;1.50;;
59950;SDS011;45812;53.540;9.774;2023-04-03T13:22:57;3.97;;;1.50;;
59950;SDS011;45812;53.540;9.774;2023-04-03T13:25:26;1.80;;;1.20;;
59950;SDS011;45812;53.540;9.774;2023-04-03T13:27:54;1.35;;;1.10;;
59950;SDS011;45812;53.540;9.774;2023-04-03T13:32:48;2.17;;;0.93;;
59950;SDS011;45812;53.540;9.774;2023-04-03T13:35:24;3.47;;;1.35;;
59950;SDS011;45812;53.540;9.774;2023-04-03T13:37:57;4.80;;;1.67;;
59950;SDS011;45812;53.540;9.774;2023-04-03T13:40:24;2.90;;;1.27;;
59950;SDS011;45812;53.540;9.774;2023-04-03T13:43:01;1.42;;;0.93;;
59950;SDS011;45812;53.540;9.774;2023-04-03T13:45:31;2.10;;;1.30;;
59950;SDS011;45812;53.540;9.774;2023-04-03T13:51:00;1.33;;;0.70;;
59950;SDS011;45812;53.540;9.774;2023-04-03T13:53:30;2.47;;;1.33;;
59950;SDS011;45812;53.540;9.774;2023-04-03T13:56:05;2.60;;;1.10;;
59950;SDS011;45812;53.540;9.774;2023-04-03T13:58:33;2.55;;;1.17;;
59950;SDS011;45812;53.540;9.774;2023-04-03T14:01:19;3.63;;;1.35;;
59950;SDS011;45812;53.540;9.774;2023-04-03T14:03:51;6.07;;;1.30;;
59950;SDS011;45812;53.540;9.774;2023-04-03T14:06:22;0.73;;;0.73;;
59950;SDS011;45812;53.540;9.774;2023-04-03T14:08:47;1.90;;;1.23;;
59950;SDS011;45812;53.540;9.774;2023-04-03T14:11:14;6.10;;;1.40;;
59950;SDS011;45812;53.540;9.774;2023-04-03T14:13:41;4.80;;;1.40;;
59950;SDS011;45812;53.540;9.774;2023-04-03T14:16:06;3.45;;;0.90;;
59950;SDS011;45812;53.540;9.774;2023-04-03T14:18:32;1.50;;;0.95;;
59950;SDS011;45812;53.540;9.774;2023-04-03T14:20:57;1.83;;;1.00;;
59950;SDS011;45812;53.540;9.774;2023-04-03T14:23:23;3.58;;;1.30;;
59950;SDS011;45812;53.540;9.774;2023-04-03T14:25:48;4.37;;;1.13;;
59950;SDS011;45812;53.540;9.774;2023-04-03T14:28:16;3.33;;;1.13;;
59950;SDS011;45812;53.540;9.774;2023-04-03T14:30:43;2.35;;;1.10;;
59950;SDS011;45812;53.540;9.774;2023-04-03T14:33:10;2.47;;;1.15;;
59950;SDS011;45812;53.540;9.774;2023-04-03T14:35:39;3.67;;;1.25;;
59950;SDS011;45812;53.540;9.774;2023-04-03T14:38:06;3.80;;;0.95;;
59950;SDS011;45812;53.540;9.774;2023-04-03T14:40:40;0.90;;;0.82;;
59950;SDS011;45812;53.540;9.774;2023-04-03T14:43:05;0.97;;;0.97;;
59950;SDS011;45812;53.540;9.774;2023-04-03T14:45:31;2.50;;;1.50;;
59950;SDS011;45812;53.540;9.774;2023-04-03T14:47:56;1.30;;;1.20;;
59950;SDS011;45812;53.540;9.774;2023-04-03T14:50:24;3.33;;;1.20;;
59950;SDS011;45812;53.540;9.774;2023-04-03T14:52:52;2.83;;;1.20;;
59950;SDS011;45812;53.540;9.774;2023-04-03T14:55:20;2.75;;;1.23;;
59950;SDS011;45812;53.540;9.774;2023-04-03T14:57:48;2.78;;;1.20;;
59950;SDS011;45812;53.540;9.774;2023-04-03T15:00:14;2.78;;;0.98;;
59950;SDS011;45812;53.540;9.774;2023-04-03T15:02:41;3.17;;;1.50;;
59950;SDS011;45812;53.540;9.774;2023-04-03T15:05:08;3.50;;;1.35;;
59950;SDS011;45812;53.540;9.774;2023-04-03T15:07:38;3.55;;;1.40;;
59950;SDS011;45812;53.540;9.774;2023-04-03T15:10:24;2.30;;;1.83;;
59950;SDS011;45812;53.540;9.774;2023-04-03T15:12:52;1.73;;;1.10;;
59950;SDS011;45812;53.540;9.774;2023-04-03T15:15:18;2.03;;;1.38;;
59950;SDS011;45812;53.540;9.774;2023-04-03T15:17:45;5.90;;;1.58;;
59950;SDS011;45812;53.540;9.774;2023-04-03T15:20:14;6.65;;;1.50;;
59950;SDS011;45812;53.540;9.774;2023-04-03T15:22:42;3.83;;;1.42;;
59950;SDS011;45812;53.540;9.774;2023-04-03T15:25:08;1.98;;;1.30;;
59950;SDS011;45812;53.540;9.774;2023-04-03T15:27:34;6.05;;;1.27;;
59950;SDS011;45812;53.540;9.774;2023-04-03T15:30:00;4.68;;;1.52;;
59950;SDS011;45812;53.540;9.774;2023-04-03T15:32:26;2.58;;;1.55;;
59950;SDS011;45812;53.540;9.774;2023-04-03T15:34:51;1.80;;;1.23;;
59950;SDS011;45812;53.540;9.774;2023-04-03T15:37:16;3.40;;;1.83;;
59950;SDS011;45812;53.540;9.774;2023-04-03T15:39:41;2.73;;;1.27;;
59950;SDS011;45812;53.540;9.774;2023-04-03T15:42:07;1.93;;;1.40;;
59950;SDS011;45812;53.540;9.774;2023-04-03T15:44:35;3.58;;;1.58;;
59950;SDS011;45812;53.540;9.774;2023-04-03T15:47:01;4.47;;;1.73;;
59950;SDS011;45812;53.540;9.774;2023-04-03T15:49:27;4.47;;;1.40;;
59950;SDS011;45812;53.540;9.774;2023-04-03T15:51:53;2.20;;;1.52;;
59950;SDS011;45812;53.540;9.774;2023-04-03T15:54:18;2.97;;;1.30;;
59950;SDS011;45812;53.540;9.774;2023-04-03T15:56:43;3.65;;;1.30;;
59950;SDS011;45812;53.540;9.774;2023-04-03T15:59:09;4.72;;;1.85;;
59950;SDS011;45812;53.540;9.774;2023-04-03T16:01:34;5.25;;;1.75;;
59950;SDS011;45812;53.540;9.774;2023-04-03T16:04:01;3.17;;;1.55;;
59950;SDS011;45812;53.540;9.774;2023-04-03T16:06:26;2.43;;;1.37;;
59950;SDS011;45812;53.540;9.774;2023-04-03T16:08:54;3.45;;;1.42;;
59950;SDS011;45812;53.540;9.774;2023-04-03T16:11:22;4.03;;;1.25;;